Time;durP1;ratioP1;P1;durP2;ratioP2;P2;SDS_P1;SDS_P2;PMS_P1;PMS_P2;Temp;Humidity;BMP_temperature;BMP_pressure;BME280_temperature;BME280_humidity;BME280_pressure;Samples;Min_cycle;Max_cycle;Signal;HPM_P1;HPM_P2
2021/12/05 00:24:30;;;;;;;5.13;1.10;;;5.40;99.90;;;;;;5037908;28;20092;-75
2021/12/05 00:27:05;;;;;;;5.75;1.05;;;5.50;99.90;;;;;;5037934;28;20124;-75
2021/12/05 00:33:20;;;;;;;4.53;1.15;;;5.30;99.90;;;;;;5037312;28;20405;-75
2021/12/05 01:09:38;;;;;;;4.05;0.68;;;5.20;99.90;;;;;;5037139;28;20056;-75
2021/12/05 01:15:06;;;;;;;5.22;0.90;;;5.10;99.90;;;;;;5026300;28;20081;-75
2021/12/05 01:17:54;;;;;;;6.20;0.85;;;5.20;99.90;;;;;;5036228;28;20037;-75
2021/12/05 01:20:21;;;;;;;1.33;0.40;;;5.00;99.90;;;;;;5036505;28;20108;-75
2021/12/05 01:23:13;;;;;;;0.80;0.63;;;5.00;99.90;;;;;;5036941;28;20037;-75
2021/12/05 01:28:16;;;;;;;2.63;0.80;;;5.10;99.90;;;;;;5036765;28;20030;-75
2021/12/05 01:36:05;;;;;;;2.47;0.70;;;5.20;78.10;;;;;;5036105;28;20099;-75
2021/12/05 02:40:23;;;;;;;1.55;0.60;;;5.40;61.10;;;;;;5036070;28;20047;-75
2021/12/05 02:45:23;;;;;;;1.00;0.52;;;5.40;53.30;;;;;;5035128;28;20087;-75
2021/12/05 02:47:51;;;;;;;1.42;0.40;;;5.20;68.10;;;;;;5035144;28;20053;-75
2021/12/05 02:50:19;;;;;;;0.32;0.20;;;5.10;91.00;;;;;;5034943;28;20492;-75
2021/12/05 02:52:45;;;;;;;0.57;0.40;;;5.10;72.40;;;;;;5034778;28;20033;-75
2021/12/05 02:55:29;;;;;;;1.27;0.50;;;5.10;63.70;;;;;;5035105;28;20113;-75
2021/12/05 02:58:00;;;;;;;1.45;0.43;;;5.20;72.30;;;;;;5034521;28;20037;-75
2021/12/05 03:00:51;;;;;;;6.15;0.47;;;5.20;97.00;;;;;;5035656;28;20040;-74
2021/12/05 03:03:24;;;;;;;2.60;0.70;;;5.20;95.30;;;;;;5035103;28;20072;-75
2021/12/05 03:05:56;;;;;;;2.33;0.50;;;5.30;83.60;;;;;;5035040;28;20048;-75
2021/12/05 03:08:22;;;;;;;2.67;0.68;;;5.20;67.30;;;;;;5034398;28;20034;-75
2021/12/05 03:10:50;;;;;;;4.00;0.90;;;5.30;63.20;;;;;;5034860;28;20033;-75
2021/12/05 03:13:16;;;;;;;1.80;0.80;;;5.30;64.00;;;;;;5034865;28;20033;-75
2021/12/05 03:15:42;;;;;;;3.22;0.70;;;5.40;60.40;;;;;;5034964;28;20112;-75
2021/12/05 03:18:09;;;;;;;3.78;0.68;;;5.30;64.20;;;;;;5034404;28;20481;-75
2021/12/05 03:20:35;;;;;;;2.33;0.43;;;5.10;61.60;;;;;;5034794;28;20041;-75
2021/12/05 03:23:01;;;;;;;4.82;1.13;;;5.20;56.60;;;;;;5034417;28;20542;-75
2021/12/05 03:25:27;;;;;;;4.40;0.80;;;5.20;74.20;;;;;;5034195;28;20084;-75
2021/12/05 03:27:54;;;;;;;3.10;0.80;;;5.20;59.50;;;;;;5034631;28;20041;-75
2021/12/05 03:30:23;;;;;;;7.00;0.88;;;5.30;61.40;;;;;;5034342;28;20072;-74
2021/12/05 03:32:50;;;;;;;2.85;1.00;;;5.30;44.40;;;;;;5034048;28;20120;-74
2021/12/05 03:35:19;;;;;;;1.88;0.43;;;5.30;66.60;;;;;;5034469;28;20045;-74
2021/12/05 03:37:47;;;;;;;2.28;0.50;;;5.30;48.90;;;;;;5049874;28;20404;-75
2021/12/05 03:40:14;;;;;;;2.08;0.40;;;5.40;42.70;;;;;;5034596;28;20558;-75
2021/12/05 03:42:40;;;;;;;1.83;0.60;;;5.40;46.20;;;;;;5034199;28;20064;-75
2021/12/05 03:45:15;;;;;;;3.30;1.10;;;5.20;73.60;;;;;;5034523;28;20080;-75
2021/12/05 03:47:41;;;;;;;2.72;0.75;;;5.10;86.50;;;;;;5034430;28;20037;-75
2021/12/05 03:50:10;;;;;;;4.00;0.77;;;5.10;93.30;;;;;;5034023;28;20095;-75
2021/12/05 03:52:39;;;;;;;1.50;0.40;;;5.10;88.20;;;;;;5034119;28;20091;-75
2021/12/05 03:55:08;;;;;;;1.90;0.40;;;5.10;76.50;;;;;;5034043;28;20079;-75
2021/12/05 03:57:34;;;;;;;0.63;0.22;;;5.00;73.80;;;;;;5034175;28;20122;-75
2021/12/05 04:00:02;;;;;;;1.20;0.30;;;4.90;90.50;;;;;;5034384;28;20045;-75
2021/12/05 04:02:28;;;;;;;0.75;0.30;;;4.90;97.00;;;;;;5034114;28;20033;-75
2021/12/05 04:04:54;;;;;;;1.75;0.55;;;4.90;87.30;;;;;;5034299;28;20103;-75
2021/12/05 04:07:20;;;;;;;1.20;0.20;;;4.70;95.70;;;;;;5034019;28;20121;-75
2021/12/05 04:09:46;;;;;;;1.20;0.20;;;4.70;99.90;;;;;;5034202;28;20116;-75
2021/12/05 04:12:15;;;;;;;1.17;0.20;;;4.70;98.80;;;;;;5033949;28;20041;-75
2021/12/05 04:14:45;;;;;;;0.63;0.20;;;4.70;96.30;;;;;;5034326;28;20056;-75
2021/12/05 04:17:13;;;;;;;1.37;0.60;;;4.70;92.10;;;;;;5033761;28;20492;-75
2021/12/05 04:19:39;;;;;;;0.30;0.20;;;4.70;91.20;;;;;;5034146;28;20061;-74
2021/12/05 04:22:08;;;;;;;0.10;0.10;;;4.60;99.20;;;;;;5034129;28;20127;-75
2021/12/05 04:24:35;;;;;;;0.13;0.10;;;4.50;99.90;;;;;;5033765;28;20049;-75
2021/12/05 04:27:02;;;;;;;0.32;0.10;;;4.40;97.50;;;;;;5034354;28;20068;-75
2021/12/05 04:29:28;;;;;;;0.88;0.22;;;4.50;97.40;;;;;;5034515;28;20042;-75
2021/12/05 04:31:54;;;;;;;0.10;0.10;;;4.40;99.90;;;;;;5034203;28;20041;-75
2021/12/05 04:34:20;;;;;;;0.20;0.20;;;4.30;99.90;;;;;;5034522;28;20045;-75
2021/12/05 04:36:46;;;;;;;1.00;0.25;;;4.30;99.90;;;;;;5033948;28;20484;-75
2021/12/05 04:39:13;;;;;;;0.10;0.10;;;4.30;99.90;;;;;;5034003;28;20034;-75
2021/12/05 04:41:41;;;;;;;0.15;0.15;;;4.30;99.90;;;;;;5036038;28;20064;-75
2021/12/05 04:44:07;;;;;;;0.35;0.20;;;4.40;94.10;;;;;;5037714;28;20184;-75
2021/12/05 04:46:34;;;;;;;0.20;0.20;;;4.50;99.90;;;;;;5037791;28;20030;-75
2021/12/05 04:49:00;;;;;;;0.20;0.20;;;4.50;90.10;;;;;;5037808;28;20041;-75
2021/12/05 04:51:32;;;;;;;0.20;0.20;;;4.50;95.60;;;;;;5037586;28;20033;-75
2021/12/05 04:53:58;;;;;;;0.32;0.28;;;4.60;98.60;;;;;;5038157;28;20049;-75
2021/12/05 04:56:25;;;;;;;0.20;0.20;;;4.60;98.10;;;;;;5037659;28;20045;-75
2021/12/05 04:58:53;;;;;;;0.30;0.30;;;4.60;99.30;;;;;;5037670;28;20504;-75
2021/12/05 05:01:20;;;;;;;0.35;0.20;;;4.50;99.90;;;;;;5037628;28;20037;-75
2021/12/05 05:03:46;;;;;;;0.20;0.20;;;4.40;99.90;;;;;;5037483;28;20033;-75
2021/12/05 05:06:18;;;;;;;0.10;0.10;;;4.40;99.90;;;;;;5037288;28;20449;-75
2021/12/05 05:08:50;;;;;;;0.22;0.20;;;4.30;99.90;;;;;;5037787;28;20033;-75
2021/12/05 05:11:17;;;;;;;1.05;0.10;;;4.30;99.80;;;;;;5037524;28;20033;-75
2021/12/05 05:13:44;;;;;;;0.47;0.10;;;4.10;99.90;;;;;;5037422;28;20041;-75
2021/12/05 05:16:13;;;;;;;0.32;0.20;;;3.90;99.90;;;;;;5036861;28;20075;-75
2021/12/05 05:18:49;;;;;;;0.13;0.13;;;3.90;99.90;;;;;;5036766;28;20094;-75
2021/12/05 05:45:43;;;;;;;0.10;0.10;;;3.90;99.90;;;;;;5036327;28;20068;-74
2021/12/05 05:50:39;;;;;;;0.10;0.10;;;3.90;75.30;;;;;;5036413;28;20063;-75
2021/12/05 05:53:06;;;;;;;0.10;0.10;;;4.00;57.50;;;;;;5035821;28;20045;-75
2021/12/05 05:55:32;;;;;;;0.30;0.20;;;3.90;73.10;;;;;;5035999;28;20139;-75
2021/12/05 05:58:05;;;;;;;0.10;0.10;;;3.90;67.70;;;;;;5036248;28;20037;-75
2021/12/05 06:00:37;;;;;;;0.20;0.20;;;4.00;73.50;;;;;;5036533;28;20033;-75
2021/12/05 06:03:24;;;;;;;0.10;0.10;;;4.10;57.70;;;;;;5035745;28;20550;-75
2021/12/05 06:05:57;;;;;;;0.10;0.10;;;4.00;65.40;;;;;;5036225;28;20073;-74
2021/12/05 06:08:27;;;;;;;0.43;0.20;;;3.90;70.00;;;;;;5036018;28;20377;-75
2021/12/05 06:10:56;;;;;;;0.50;0.40;;;3.90;99.00;;;;;;5035985;28;20038;-75
2021/12/05 06:13:23;;;;;;;0.50;0.10;;;4.00;98.60;;;;;;5035951;28;20504;-75
2021/12/05 06:15:50;;;;;;;0.22;0.20;;;4.00;93.20;;;;;;5035860;28;20049;-75
2021/12/05 06:18:16;;;;;;;0.20;0.20;;;3.90;99.90;;;;;;5035504;28;20366;-75
2021/12/05 06:20:42;;;;;;;0.88;0.40;;;3.80;99.90;;;;;;5035574;28;20060;-75
2021/12/05 06:23:09;;;;;;;1.60;0.40;;;3.90;99.90;;;;;;5036309;28;20033;-75
2021/12/05 06:25:38;;;;;;;2.70;1.00;;;3.90;99.90;;;;;;5036019;28;20107;-75
2021/12/05 06:28:11;;;;;;;0.40;0.30;;;3.80;99.90;;;;;;5036084;28;20037;-75
2021/12/05 06:30:53;;;;;;;1.08;0.47;;;3.70;99.90;;;;;;5035029;28;20053;-75
2021/12/05 06:47:02;;;;;;;0.30;0.20;;;4.00;99.90;;;;;;5034698;28;20451;-75
2021/12/05 06:49:28;;;;;;;0.95;0.20;;;4.00;90.70;;;;;;5035011;28;20033;-74
2021/12/05 06:51:54;;;;;;;0.28;0.15;;;4.00;98.50;;;;;;5035466;28;20030;-75
2021/12/05 06:54:22;;;;;;;0.20;0.20;;;3.90;92.90;;;;;;5035146;28;20044;-75
2021/12/05 06:56:48;;;;;;;0.45;0.20;;;3.90;98.70;;;;;;5035148;28;20479;-75
2021/12/05 06:59:16;;;;;;;0.43;0.30;;;3.90;99.90;;;;;;5034955;28;20535;-75
2021/12/05 07:01:42;;;;;;;0.68;0.30;;;4.20;65.50;;;;;;5035078;28;20584;-75
2021/12/05 07:05:06;;;;;;;0.22;0.20;;;4.30;64.90;;;;;;5034348;28;20120;-75
2021/12/05 07:06:57;;;;;;;0.20;0.20;;;4.30;78.20;;;;;;5026307;28;20041;-75
2021/12/05 07:09:23;;;;;;;0.20;0.10;;;4.30;91.80;;;;;;5033853;28;20056;-75
2021/12/05 07:12:32;;;;;;;0.38;0.20;;;4.20;98.60;;;;;;5035066;28;20124;-75
2021/12/05 07:22:35;;;;;;;0.20;0.20;;;4.30;99.30;;;;;;5034746;28;20033;-75
2021/12/05 07:25:07;;;;;;;0.35;0.22;;;4.20;99.90;;;;;;5034174;28;20499;-75
2021/12/05 07:41:41;;;;;;;0.57;0.20;;;4.80;59.30;;;;;;5034255;28;20063;-74
2021/12/05 07:44:07;;;;;;;1.55;0.43;;;5.00;49.50;;;;;;5034079;28;20041;-75
2021/12/05 07:46:33;;;;;;;0.28;0.13;;;4.90;57.50;;;;;;5034636;28;20083;-75
2021/12/05 07:48:59;;;;;;;0.43;0.30;;;5.00;47.50;;;;;;5034243;28;20041;-75
2021/12/05 07:51:28;;;;;;;0.10;0.10;;;5.10;85.50;;;;;;5034131;28;20072;-75
2021/12/05 07:54:25;;;;;;;2.00;0.17;;;5.00;60.00;;;;;;5034332;28;20124;-74
2021/12/05 07:57:06;;;;;;;2.17;0.20;;;4.80;99.90;;;;;;5033831;28;20504;-75
2021/12/05 07:59:54;;;;;;;0.73;0.43;;;4.50;99.90;;;;;;5034558;28;20041;-74
2021/12/05 08:16:08;;;;;;;0.10;0.10;;;4.10;99.90;;;;;;5034498;28;20044;-73
2021/12/05 08:18:34;;;;;;;0.20;0.20;;;4.10;99.90;;;;;;5037398;28;20563;-74
2021/12/05 08:21:02;;;;;;;0.10;0.10;;;4.20;99.90;;;;;;5037108;28;20519;-74
2021/12/05 08:23:28;;;;;;;0.20;0.20;;;4.20;99.90;;;;;;5037930;28;20045;-75
2021/12/05 08:26:08;;;;;;;0.20;0.20;;;4.30;99.90;;;;;;5038174;28;20572;-74
2021/12/05 09:31:16;;;;;;;0.20;0.20;;;5.80;9.60;;;;;;5024787;28;20386;-75
2021/12/05 09:38:39;;;;;;;0.15;0.15;;;5.70;18.10;;;;;;5035866;28;20068;-74
2021/12/05 10:06:50;;;;;;;2.47;1.35;;;5.80;17.10;;;;;;5033974;28;20107;-74
2021/12/05 10:17:56;;;;;;;0.52;0.30;;;6.00;22.90;;;;;;4989521;28;20126;-73
2021/12/05 10:37:51;;;;;;;3.03;0.40;;;5.80;28.00;;;;;;5033960;28;20041;-74
2021/12/05 10:40:22;;;;;;;0.38;0.30;;;5.60;26.50;;;;;;5034259;28;20033;-73
2021/12/05 10:42:54;;;;;;;0.30;0.22;;;5.80;23.00;;;;;;5032691;28;20069;-73
2021/12/05 10:45:19;;;;;;;1.02;0.38;;;5.90;25.30;;;;;;5032807;28;20048;-73
2021/12/05 10:47:48;;;;;;;0.32;0.22;;;6.00;11.50;;;;;;5032800;28;20037;-72
2021/12/05 10:50:39;;;;;;;1.67;0.40;;;6.20;13.70;;;;;;5017715;28;20060;-72
2021/12/05 10:53:26;;;;;;;1.05;0.47;;;6.30;15.70;;;;;;5032973;28;20504;-73
2021/12/05 10:56:33;;;;;;;0.70;0.52;;;6.20;20.10;;;;;;5032912;28;20049;-72
2021/12/05 10:59:08;;;;;;;1.45;0.95;;;6.10;17.60;;;;;;5021895;28;20045;-72
2021/12/05 11:01:51;;;;;;;0.32;0.32;;;5.80;27.80;;;;;;5033311;28;20033;-73
2021/12/05 11:04:23;;;;;;;0.75;0.50;;;5.60;12.30;;;;;;5033644;28;20061;-73
2021/12/05 11:06:57;;;;;;;1.30;0.85;;;5.60;23.10;;;;;;5032849;28;20080;-71
2021/12/05 11:09:25;;;;;;;1.27;0.90;;;5.70;24.30;;;;;;5031833;28;20505;-72
2021/12/05 11:12:14;;;;;;;0.43;0.30;;;5.70;26.30;;;;;;5030400;28;20041;-72
2021/12/05 11:14:47;;;;;;;3.05;0.80;;;5.80;18.30;;;;;;5028988;28;20045;-72
2021/12/05 11:17:14;;;;;;;1.10;0.70;;;5.90;21.60;;;;;;5012166;28;20041;-72
2021/12/05 11:19:45;;;;;;;1.00;0.88;;;6.00;37.60;;;;;;5024816;28;20033;-72
2021/12/05 11:22:23;;;;;;;2.47;0.80;;;5.90;22.20;;;;;;5014752;28;20046;-72
2021/12/05 11:24:57;;;;;;;0.98;0.70;;;5.90;28.10;;;;;;5010793;28;20133;-71
2021/12/05 11:27:28;;;;;;;1.75;1.00;;;5.70;10.70;;;;;;5027547;28;20046;-71
2021/12/05 11:30:09;;;;;;;4.18;1.95;;;5.60;12.80;;;;;;5032788;28;20041;-71
2021/12/05 11:32:50;;;;;;;2.20;1.58;;;5.70;18.80;;;;;;5031595;28;20068;-71
2021/12/05 11:35:25;;;;;;;2.97;1.00;;;6.10;6.70;;;;;;5031456;28;20077;-71
2021/12/05 11:38:05;;;;;;;2.88;1.55;;;6.60;1.00;;;;;;5031254;28;20129;-71
2021/12/05 11:40:50;;;;;;;3.95;1.25;;;6.80;1.00;;;;;;5032799;28;20118;-70
2021/12/05 11:43:26;;;;;;;2.28;0.80;;;6.20;1.00;;;;;;5033075;28;20037;-71
2021/12/05 11:46:05;;;;;;;0.70;0.50;;;5.50;15.30;;;;;;5012561;28;20053;-71
2021/12/05 11:48:55;;;;;;;1.48;1.05;;;5.00;38.30;;;;;;5029040;28;20047;-70
2021/12/05 11:51:34;;;;;;;1.85;1.10;;;4.30;99.90;;;;;;5032221;28;20113;-71
2021/12/05 11:54:14;;;;;;;3.50;1.85;;;4.30;99.90;;;;;;5029597;28;20041;-72
2021/12/05 11:57:01;;;;;;;257.13;111.35;;;4.50;99.90;;;;;;5023291;28;20048;-72
2021/12/05 11:59:33;;;;;;;10.05;7.63;;;4.90;99.90;;;;;;5032772;28;20096;-72
2021/12/05 12:02:11;;;;;;;7.50;4.78;;;5.30;99.90;;;;;;5013101;28;20041;-72
2021/12/05 12:05:05;;;;;;;29.15;21.80;;;5.50;29.40;;;;;;5024480;28;20527;-72
2021/12/05 12:07:38;;;;;;;6.47;3.40;;;5.60;31.30;;;;;;5032442;28;20037;-73
2021/12/05 12:10:16;;;;;;;4.80;2.92;;;5.50;39.80;;;;;;5033189;28;20488;-72
2021/12/05 12:12:54;;;;;;;8.15;7.32;;;5.20;50.20;;;;;;5032851;28;20079;-72
2021/12/05 12:15:20;;;;;;;8.10;7.28;;;4.50;20.90;;;;;;5025241;28;20045;-72
2021/12/05 12:17:48;;;;;;;6.20;5.50;;;4.30;51.00;;;;;;5031445;28;20131;-72
2021/12/05 12:20:19;;;;;;;1.92;0.90;;;4.20;99.90;;;;;;5031251;28;20049;-72
2021/12/05 12:22:45;;;;;;;4.03;2.35;;;4.10;95.60;;;;;;5012008;28;20096;-72
2021/12/05 12:25:19;;;;;;;2.22;1.20;;;4.20;99.90;;;;;;5026185;28;20053;-72
2021/12/05 12:27:46;;;;;;;3.17;2.25;;;4.30;96.80;;;;;;5033424;28;20112;-72
2021/12/05 12:30:14;;;;;;;1.60;1.10;;;4.30;99.90;;;;;;5032859;28;20053;-72
2021/12/05 12:32:47;;;;;;;3.70;1.98;;;4.20;98.50;;;;;;5033000;28;20087;-72
2021/12/05 12:35:18;;;;;;;2.78;1.17;;;4.20;98.60;;;;;;5033375;28;20519;-72
2021/12/05 12:38:08;;;;;;;1.42;0.50;;;4.10;99.90;;;;;;5032364;28;20029;-72
2021/12/05 12:40:54;;;;;;;8.85;5.15;;;4.30;99.90;;;;;;5031603;28;20041;-72
2021/12/05 12:43:38;;;;;;;1.77;1.17;;;4.30;99.90;;;;;;5032527;28;20511;-73
2021/12/05 12:46:18;;;;;;;13.00;8.40;;;4.40;99.90;;;;;;5026409;28;20049;-74
2021/12/05 12:48:44;;;;;;;4.03;1.42;;;4.60;99.90;;;;;;5015401;28;20042;-73
2021/12/05 12:51:24;;;;;;;3.38;2.70;;;4.60;99.90;;;;;;5052426;28;20037;-73
2021/12/05 12:53:58;;;;;;;1.10;0.60;;;4.60;86.00;;;;;;5052719;28;20049;-74
2021/12/05 12:56:24;;;;;;;2.15;1.40;;;4.40;99.90;;;;;;5032847;28;20060;-72
2021/12/05 12:59:05;;;;;;;2.67;2.30;;;4.30;99.90;;;;;;5032398;28;20051;-74
2021/12/05 13:07:22;;;;;;;2.15;1.02;;;3.80;99.90;;;;;;5036149;28;20033;-74
2021/12/05 13:10:08;;;;;;;3.47;1.45;;;3.90;99.90;;;;;;5035734;28;20037;-74
2021/12/05 13:12:44;;;;;;;3.08;1.17;;;4.00;99.90;;;;;;5035619;28;20040;-75
2021/12/05 13:15:16;;;;;;;5.47;1.77;;;4.30;75.70;;;;;;5036002;28;20095;-75
2021/12/05 13:17:45;;;;;;;4.93;0.95;;;4.70;45.80;;;;;;5035710;28;20049;-74
2021/12/05 13:20:15;;;;;;;3.00;0.90;;;4.80;36.50;;;;;;5035632;28;20041;-74
2021/12/05 13:23:01;;;;;;;3.95;1.55;;;5.00;4.70;;;;;;5035802;28;20116;-74
2021/12/05 13:25:28;;;;;;;17.48;10.00;;;5.00;5.00;;;;;;5035570;28;20138;-74
2021/12/05 13:27:56;;;;;;;2.28;0.82;;;5.20;1.00;;;;;;5035645;28;20091;-74
2021/12/05 13:30:34;;;;;;;3.00;0.70;;;5.40;1.00;;;;;;5034891;28;20041;-74
2021/12/05 13:33:21;;;;;;;20.10;10.50;;;5.30;1.00;;;;;;5033974;28;20561;-73
2021/12/05 13:35:48;;;;;;;6.82;3.17;;;5.30;1.00;;;;;;5032156;28;20467;-73
2021/12/05 13:38:39;;;;;;;3.78;1.95;;;5.00;9.10;;;;;;5035070;28;20045;-74
2021/12/05 13:41:14;;;;;;;203.38;110.53;;;4.80;5.30;;;;;;5035074;28;20041;-75
2021/12/05 13:43:41;;;;;;;180.40;103.78;;;4.70;7.90;;;;;;5035606;28;20531;-74
2021/12/05 13:46:30;;;;;;;12.25;5.07;;;4.80;1.90;;;;;;5035612;28;20050;-74
2021/12/05 13:48:57;;;;;;;41.95;18.42;;;4.80;1.00;;;;;;5035150;28;20045;-74
2021/12/05 13:51:24;;;;;;;11.88;7.43;;;4.90;1.00;;;;;;5034655;28;20037;-75
2021/12/05 13:53:52;;;;;;;4.00;2.17;;;5.00;3.80;;;;;;5035372;28;20041;-75
2021/12/05 13:56:24;;;;;;;3.20;2.28;;;4.80;21.90;;;;;;5034729;28;20045;-75
2021/12/05 13:58:53;;;;;;;5.40;2.45;;;4.60;99.90;;;;;;5035339;28;20052;-74
2021/12/05 14:01:45;;;;;;;19.10;11.30;;;4.40;99.90;;;;;;5032273;28;20048;-75
2021/12/05 14:04:18;;;;;;;3.03;1.60;;;4.10;81.60;;;;;;5033777;28;20033;-75
2021/12/05 14:07:04;;;;;;;1.42;1.23;;;4.00;99.90;;;;;;5028963;28;20037;-75
2021/12/05 14:09:39;;;;;;;2.50;1.63;;;3.80;99.90;;;;;;5026189;28;20052;-74
2021/12/05 14:12:18;;;;;;;2.72;1.90;;;3.80;40.20;;;;;;5033517;28;20087;-75
2021/12/05 14:15:00;;;;;;;2.42;1.90;;;4.00;34.60;;;;;;5033018;28;20037;-75
2021/12/05 14:17:32;;;;;;;3.25;1.48;;;4.20;26.70;;;;;;5029423;28;20042;-76
2021/12/05 14:20:01;;;;;;;8.00;3.13;;;4.20;24.00;;;;;;5030946;28;20421;-75
2021/12/05 14:22:30;;;;;;;3.78;1.38;;;4.20;16.80;;;;;;5033329;28;20044;-74
2021/12/05 14:25:01;;;;;;;25.20;18.08;;;4.30;11.70;;;;;;5030649;28;20049;-75
2021/12/05 14:27:33;;;;;;;4.80;2.13;;;4.30;1.70;;;;;;5016210;28;20052;-74
2021/12/05 14:30:00;;;;;;;38.60;24.75;;;4.30;5.90;;;;;;5032448;28;20527;-75
2021/12/05 14:32:35;;;;;;;38.50;22.15;;;4.30;1.00;;;;;;5033039;28;20044;-76
2021/12/05 14:35:10;;;;;;;33.50;15.80;;;4.30;1.00;;;;;;5032576;28;20052;-75
2021/12/05 14:37:39;;;;;;;81.07;41.58;;;4.30;1.00;;;;;;5034334;28;20041;-75
2021/12/05 14:40:09;;;;;;;81.00;46.25;;;4.40;1.00;;;;;;5034186;28;20037;-75
2021/12/05 14:42:38;;;;;;;25.65;10.80;;;4.40;1.00;;;;;;5034751;28;20037;-75
2021/12/05 14:45:30;;;;;;;3.42;1.83;;;4.50;1.00;;;;;;5033999;28;20045;-75
2021/12/05 14:48:02;;;;;;;8.02;2.80;;;4.40;1.00;;;;;;5033781;28;20030;-75
2021/12/05 14:50:31;;;;;;;10.73;4.50;;;4.50;1.00;;;;;;5035092;28;20055;-75
2021/12/05 14:53:00;;;;;;;11.93;7.43;;;4.40;1.00;;;;;;5034564;28;20037;-74
2021/12/05 14:55:30;;;;;;;20.17;18.02;;;4.50;1.00;;;;;;5035711;28;20041;-73
2021/12/05 14:58:01;;;;;;;21.23;18.98;;;4.60;1.00;;;;;;5035004;28;20034;-74
2021/12/05 15:00:37;;;;;;;;;;;4.60;1.00;;;;;;5034861;28;20116;-74
2021/12/05 15:03:07;;;;;;;3.13;1.70;;;4.70;1.00;;;;;;5035102;28;19951;-74
2021/12/05 15:05:37;;;;;;;28.20;18.15;;;4.70;1.00;;;;;;5034027;28;20069;-74
2021/12/05 15:08:10;;;;;;;5.88;1.40;;;4.70;1.00;;;;;;5038925;28;20043;-75
2021/12/05 15:10:38;;;;;;;19.27;14.60;;;4.70;1.00;;;;;;5034359;28;20037;-75
2021/12/05 15:13:05;;;;;;;8.88;4.10;;;4.70;1.00;;;;;;5033617;28;20067;-74
2021/12/05 15:15:32;;;;;;;5.72;4.40;;;4.70;1.00;;;;;;5033344;28;20144;-74
2021/12/05 15:17:58;;;;;;;5.22;2.30;;;4.80;1.00;;;;;;5032388;28;20057;-74
2021/12/05 15:20:28;;;;;;;5.97;2.55;;;4.70;1.00;;;;;;5022334;28;20041;-74
2021/12/05 15:23:05;;;;;;;4.13;1.50;;;4.70;1.00;;;;;;5032551;28;20060;-75
2021/12/05 15:25:34;;;;;;;9.48;4.78;;;4.70;1.00;;;;;;5032171;28;20061;-74
2021/12/05 15:28:03;;;;;;;5.72;2.67;;;4.60;1.00;;;;;;5033199;28;20503;-74
2021/12/05 15:30:38;;;;;;;9.15;2.42;;;4.60;1.00;;;;;;5031002;28;20068;-75
2021/12/05 15:33:12;;;;;;;5.30;2.05;;;4.60;1.00;;;;;;5034329;28;20049;-75
2021/12/05 15:35:40;;;;;;;8.38;5.57;;;4.50;4.60;;;;;;5033397;28;20068;-73
2021/12/05 15:38:14;;;;;;;4.88;1.90;;;4.40;1.00;;;;;;5034242;28;20076;-74
2021/12/05 15:40:44;;;;;;;6.15;3.03;;;4.50;1.00;;;;;;5033148;28;20092;-75
2021/12/05 15:43:19;;;;;;;3.63;1.07;;;4.50;1.00;;;;;;5033608;28;20037;-74
2021/12/05 15:45:50;;;;;;;3.53;1.27;;;4.50;1.00;;;;;;5033616;28;20256;-76
2021/12/05 15:48:26;;;;;;;;;;;4.50;1.00;;;;;;5033187;28;20064;-76
2021/12/05 15:50:53;;;;;;;5.47;1.25;;;4.40;1.00;;;;;;5032349;28;20414;-75
2021/12/05 15:53:21;;;;;;;3.97;1.60;;;4.40;1.00;;;;;;5032321;28;20594;-74
2021/12/05 15:55:52;;;;;;;6.70;2.67;;;4.40;1.00;;;;;;5031408;28;20115;-74
2021/12/05 15:58:30;;;;;;;8.30;2.95;;;4.40;1.00;;;;;;5031592;28;20055;-76
2021/12/05 16:01:26;;;;;;;6.38;1.45;;;4.40;1.00;;;;;;5031324;28;20175;-75
2021/12/05 16:04:02;;;;;;;27.17;13.73;;;4.40;1.00;;;;;;5014355;28;20120;-76
2021/12/05 16:06:41;;;;;;;26.05;12.30;;;4.50;1.00;;;;;;5030395;28;20037;-76
2021/12/05 16:09:20;;;;;;;6.93;2.20;;;4.50;1.00;;;;;;5031159;28;20041;-75
2021/12/05 16:11:49;;;;;;;108.63;47.40;;;4.50;1.00;;;;;;5046426;28;20063;-75
2021/12/05 16:14:31;;;;;;;5.60;3.20;;;4.50;1.00;;;;;;5050771;28;20131;-76
2021/12/05 16:16:57;;;;;;;6.57;2.25;;;4.50;1.00;;;;;;5042929;28;20047;-75
2021/12/05 16:19:23;;;;;;;18.13;8.50;;;4.50;1.00;;;;;;5032750;28;20060;-74
2021/12/05 16:21:51;;;;;;;37.20;19.88;;;4.40;1.00;;;;;;5032803;28;20029;-74
2021/12/05 16:24:23;;;;;;;24.20;12.13;;;4.50;1.00;;;;;;5032408;28;20037;-73
2021/12/05 16:26:52;;;;;;;21.02;9.98;;;4.40;1.00;;;;;;5032435;28;20057;-73
2021/12/05 16:29:22;;;;;;;36.80;22.83;;;4.50;1.00;;;;;;5031806;28;20049;-73
2021/12/05 16:31:53;;;;;;;6.40;2.90;;;4.40;1.00;;;;;;5031879;28;20041;-73
2021/12/05 16:34:25;;;;;;;6.65;2.13;;;4.40;1.00;;;;;;5032844;28;20026;-73
2021/12/05 16:36:58;;;;;;;50.00;30.77;;;4.30;1.00;;;;;;5045430;28;20053;-73
2021/12/05 16:39:51;;;;;;;15.10;6.18;;;4.30;1.00;;;;;;5036756;28;20041;-74
2021/12/05 16:42:20;;;;;;;88.65;62.08;;;4.30;1.00;;;;;;5036743;28;20565;-74
2021/12/05 16:44:58;;;;;;;11.52;6.65;;;4.40;1.00;;;;;;5036363;28;20033;-73
2021/12/05 16:47:28;;;;;;;5.07;2.10;;;4.40;1.00;;;;;;5035671;28;20037;-74
2021/12/05 16:49:56;;;;;;;7.45;2.38;;;4.40;7.70;;;;;;5037041;28;20042;-74
2021/12/05 16:52:31;;;;;;;9.27;2.70;;;4.20;14.50;;;;;;5036516;28;20029;-74
2021/12/05 16:55:03;;;;;;;5.93;2.08;;;4.30;1.00;;;;;;5035039;28;20047;-74
2021/12/05 16:57:40;;;;;;;6.85;2.83;;;4.30;12.00;;;;;;5033280;28;20048;-73
2021/12/05 17:00:19;;;;;;;130.63;66.00;;;4.30;13.00;;;;;;5034194;28;20045;-75
2021/12/05 17:02:53;;;;;;;44.47;32.15;;;4.20;8.40;;;;;;5034568;28;20057;-74
2021/12/05 17:05:35;;;;;;;50.08;31.48;;;4.40;6.90;;;;;;5035538;28;20531;-73
2021/12/05 17:08:11;;;;;;;7.65;2.47;;;4.40;20.20;;;;;;5035357;28;20045;-73
2021/12/05 17:10:45;;;;;;;7.60;1.52;;;4.20;29.30;;;;;;5034581;28;20146;-73
2021/12/05 17:13:40;;;;;;;35.95;22.80;;;4.30;11.90;;;;;;5034614;28;20064;-73
2021/12/05 17:16:11;;;;;;;7.60;4.00;;;4.20;22.80;;;;;;5028649;28;20076;-74
2021/12/05 17:18:46;;;;;;;10.70;5.68;;;4.10;22.20;;;;;;5034894;28;20064;-73
2021/12/05 17:21:22;;;;;;;5.57;1.60;;;4.10;30.40;;;;;;5035597;28;20048;-72
2021/12/05 17:23:52;;;;;;;18.85;8.70;;;4.10;22.30;;;;;;5035634;28;20560;-72
2021/12/05 17:26:20;;;;;;;9.23;2.95;;;4.10;12.00;;;;;;5035008;28;20184;-72
2021/12/05 17:29:00;;;;;;;22.95;15.43;;;4.20;13.00;;;;;;5033448;28;20029;-72
2021/12/05 17:31:30;;;;;;;8.07;2.50;;;4.30;9.20;;;;;;5035897;28;20079;-72
2021/12/05 17:34:00;;;;;;;8.07;2.15;;;4.30;9.10;;;;;;5035245;28;20538;-73
2021/12/05 17:36:32;;;;;;;11.35;3.08;;;4.30;8.20;;;;;;5034602;28;20052;-73
2021/12/05 17:39:13;;;;;;;5.50;2.75;;;4.30;13.10;;;;;;5035344;28;20127;-74
2021/12/05 17:41:43;;;;;;;7.50;2.55;;;4.20;8.20;;;;;;5035583;28;20072;-73
2021/12/05 17:44:11;;;;;;;9.02;3.10;;;4.40;1.00;;;;;;5035489;28;20034;-73
2021/12/05 17:46:38;;;;;;;9.23;2.75;;;4.30;7.60;;;;;;5034610;28;20147;-74
2021/12/05 17:49:07;;;;;;;8.85;4.75;;;4.30;9.20;;;;;;5030860;28;20041;-71
2021/12/05 17:51:37;;;;;;;10.63;3.38;;;4.30;10.70;;;;;;5033801;28;20397;-71
2021/12/05 17:54:05;;;;;;;8.53;2.87;;;4.40;8.70;;;;;;5035018;28;20515;-72
2021/12/05 17:56:44;;;;;;;7.80;1.85;;;4.60;4.70;;;;;;5032331;28;20037;-71
2021/12/05 17:59:36;;;;;;;7.28;2.60;;;4.60;1.00;;;;;;5032451;28;20053;-71
2021/12/05 18:04:50;;;;;;;5.82;2.00;;;4.70;1.00;;;;;;5032089;28;20658;-73
2021/12/05 18:07:19;;;;;;;71.75;43.25;;;4.60;1.00;;;;;;5033928;28;20041;-73
2021/12/05 18:09:45;;;;;;;8.48;2.97;;;4.60;1.00;;;;;;5030459;28;20057;-73
2021/12/05 18:12:20;;;;;;;10.93;3.28;;;4.40;7.10;;;;;;5031837;28;20045;-72
2021/12/05 18:14:47;;;;;;;107.43;57.72;;;4.40;5.40;;;;;;5032871;28;20094;-72
2021/12/05 18:17:14;;;;;;;10.77;3.00;;;4.40;1.00;;;;;;5031336;28;20590;-72
2021/12/05 18:19:41;;;;;;;41.97;18.17;;;4.40;7.40;;;;;;5032178;28;20187;-73
2021/12/05 18:22:07;;;;;;;9.27;3.45;;;4.50;2.30;;;;;;5032778;28;20175;-72
2021/12/05 18:24:34;;;;;;;16.08;4.57;;;4.40;13.90;;;;;;5033920;28;20148;-72
2021/12/05 18:27:00;;;;;;;11.23;3.25;;;4.50;6.70;;;;;;5034133;28;20048;-72
2021/12/05 18:29:27;;;;;;;13.63;8.20;;;4.50;9.30;;;;;;5034103;28;20048;-72
2021/12/05 18:31:56;;;;;;;10.88;4.13;;;4.50;4.80;;;;;;5034371;28;20029;-72
2021/12/05 18:34:28;;;;;;;11.60;6.60;;;4.50;10.90;;;;;;5034245;28;20200;-73
2021/12/05 18:36:56;;;;;;;6.55;2.65;;;4.60;4.20;;;;;;5034618;28;20044;-73
2021/12/05 18:39:28;;;;;;;7.32;3.08;;;4.80;1.00;;;;;;5033848;28;20564;-72
2021/12/05 18:41:58;;;;;;;9.90;2.85;;;4.60;1.00;;;;;;5033612;28;20544;-73
2021/12/05 18:44:28;;;;;;;8.90;2.88;;;4.60;3.50;;;;;;5040181;28;20041;-73
2021/12/05 18:46:56;;;;;;;9.20;3.20;;;4.60;3.50;;;;;;5027936;28;20045;-73
2021/12/05 18:49:24;;;;;;;8.07;2.03;;;4.70;9.10;;;;;;5032873;28;20318;-72
2021/12/05 18:51:51;;;;;;;9.85;5.50;;;4.90;6.20;;;;;;5033500;28;20048;-72
2021/12/05 18:54:19;;;;;;;6.32;2.40;;;4.70;10.00;;;;;;5033920;28;20425;-72
2021/12/05 18:56:45;;;;;;;42.20;26.65;;;4.50;13.20;;;;;;5032119;28;20128;-72
2021/12/05 18:59:12;;;;;;;9.63;5.22;;;4.60;10.60;;;;;;5033936;28;20079;-72
2021/12/05 19:07:28;;;;;;;4.18;2.60;;;4.40;19.00;;;;;;5022346;28;20128;-71
2021/12/05 19:12:34;;;;;;;60.13;33.22;;;4.30;16.50;;;;;;5032535;28;20045;-72